Newhall, IA (52315)

3:14 AM CDT on August 27, 2016 (GMT -0500)
newhall | | Change Station

Elev 925 ft 41.99 °N, 92.00 °W | Updated 4 seconds ago

Light Rain
Light Rain
63.5 °F
Feels Like 63.5 °F
N
6.7
Wind Variable Wind from ENE
Gusts 9.8 mph

Today
High -- | Low -- °F
--% Chance of Precip.
Yesterday
High -- | Low -- °F
Precip. -- in
Pressure 30.03 in
Visibility 7.0 miles
Clouds Scattered Clouds 600 ft
Overcast 1300 ft
Dew Point 62 °F
Humidity 96%
Rainfall 0.05 in
Snow Depth Not available.
6:28 AM 7:48 PM
Waning Crescent, 26% visible
SPECI KCID 270807Z AUTO 04008KT 7SM -RA SCT006 OVC013 18/18 A3003 RMK AO2 P0001 T01780178
Pressure 30.03 in
Visibility 7.0 miles
Clouds Scattered Clouds 600 ft
Overcast 1300 ft
Dew Point 62 °F
Humidity 96%
Rainfall 0.05 in
Snow Depth Not available.
6:28 AM 7:48 PM
Waning Crescent, 26% visible
SPECI KCID 270807Z AUTO 04008KT 7SM -RA SCT006 OVC013 18/18 A3003 RMK AO2 P0001 T01780178

10-Day Weather Forecast

Almanac

Astronomy

Aug. 27, 2016 Rise Set
Actual Time
Civil Twilight
Nautical Twilight
Astronomical Twilight
Moon
Length of Visible Light
Length of Day
Tomorrow will be .
, % of the Moon is Illuminated

Today's Extremes

State Highs State Lows

Community

WunderPhotos

Upload Photos

1,935,303 photos uploaded!

WunderBlog® & News

Nearby

Air Quality

  Air Quality AQ Index Pollutant
Not available.

Snow Depth

Station Depth Elevation

Earthquake Activity

City Distance Mag. Time & Date
Minimum magnitude displayed is 2.5.

Coastal Water Temperatures

Place Temperature

Stations

Nearby Weather Stations

Station Location Temp. Windchill Dew Point Humidity Wind Precip. Elev Updated Type
                   

Watches & Warnings

There are currently no watches in effect.